sensor_id;sensor_type;location;lat;lon;timestamp;temperature;humidity
65876;HTU21D;52657;51.128;5.938;2022-10-15T00:01:12;16.56;76.23
65876;HTU21D;52657;51.128;5.938;2022-10-15T00:03:40;16.57;76.28
65876;HTU21D;52657;51.128;5.938;2022-10-15T00:06:09;16.60;76.31
65876;HTU21D;52657;51.128;5.938;2022-10-15T00:08:36;16.61;76.36
65876;HTU21D;52657;51.128;5.938;2022-10-15T00:11:04;16.62;76.40
65876;HTU21D;52657;51.128;5.938;2022-10-15T00:13:30;16.60;76.46
65876;HTU21D;52657;51.128;5.938;2022-10-15T00:15:57;16.56;76.76
65876;HTU21D;52657;51.128;5.938;2022-10-15T00:18:23;16.52;76.84
65876;HTU21D;52657;51.128;5.938;2022-10-15T00:20:49;16.50;76.99
65876;HTU21D;52657;51.128;5.938;2022-10-15T00:23:15;16.52;77.03
65876;HTU21D;52657;51.128;5.938;2022-10-15T00:25:40;16.56;76.95
65876;HTU21D;52657;51.128;5.938;2022-10-15T00:28:07;16.58;76.85
65876;HTU21D;52657;51.128;5.938;2022-10-15T00:30:32;16.58;76.86
65876;HTU21D;52657;51.128;5.938;2022-10-15T00:32:58;16.56;76.86
65876;HTU21D;52657;51.128;5.938;2022-10-15T00:35:24;16.57;76.88
65876;HTU21D;52657;51.128;5.938;2022-10-15T00:37:49;16.57;76.97
65876;HTU21D;52657;51.128;5.938;2022-10-15T00:40:15;16.59;76.91
65876;HTU21D;52657;51.128;5.938;2022-10-15T00:42:41;16.60;76.89
65876;HTU21D;52657;51.128;5.938;2022-10-15T00:45:11;16.62;76.79
65876;HTU21D;52657;51.128;5.938;2022-10-15T00:47:48;16.62;76.64
65876;HTU21D;52657;51.128;5.938;2022-10-15T00:50:26;16.62;76.70
65876;HTU21D;52657;51.128;5.938;2022-10-15T00:53:02;16.61;76.76
65876;HTU21D;52657;51.128;5.938;2022-10-15T00:55:34;16.64;76.77
65876;HTU21D;52657;51.128;5.938;2022-10-15T00:58:08;16.66;76.77
65876;HTU21D;52657;51.128;5.938;2022-10-15T01:00:34;16.67;76.76
65876;HTU21D;52657;51.128;5.938;2022-10-15T01:03:01;16.67;76.85
65876;HTU21D;52657;51.128;5.938;2022-10-15T01:05:28;16.70;76.86
65876;HTU21D;52657;51.128;5.938;2022-10-15T01:07:54;16.72;76.86
65876;HTU21D;52657;51.128;5.938;2022-10-15T01:10:34;16.75;76.84
65876;HTU21D;52657;51.128;5.938;2022-10-15T01:13:10;16.75;76.84
65876;HTU21D;52657;51.128;5.938;2022-10-15T01:15:54;16.74;76.98
65876;HTU21D;52657;51.128;5.938;2022-10-15T01:18:41;16.75;77.04
65876;HTU21D;52657;51.128;5.938;2022-10-15T01:21:32;16.77;77.00
65876;HTU21D;52657;51.128;5.938;2022-10-15T01:32:27;16.79;77.02
65876;HTU21D;52657;51.128;5.938;2022-10-15T01:35:30;16.79;77.03
65876;HTU21D;52657;51.128;5.938;2022-10-15T01:40:36;16.81;76.93
65876;HTU21D;52657;51.128;5.938;2022-10-15T01:43:12;16.82;76.93
65876;HTU21D;52657;51.128;5.938;2022-10-15T01:46:10;16.82;76.93
65876;HTU21D;52657;51.128;5.938;2022-10-15T01:48:56;16.84;76.92
65876;HTU21D;52657;51.128;5.938;2022-10-15T01:51:23;16.84;76.94
65876;HTU21D;52657;51.128;5.938;2022-10-15T01:53:58;16.84;76.90
65876;HTU21D;52657;51.128;5.938;2022-10-15T01:56:26;16.82;76.94
65876;HTU21D;52657;51.128;5.938;2022-10-15T01:58:55;16.81;77.01
65876;HTU21D;52657;51.128;5.938;2022-10-15T02:01:22;16.84;76.97
65876;HTU21D;52657;51.128;5.938;2022-10-15T02:03:52;16.85;76.95
65876;HTU21D;52657;51.128;5.938;2022-10-15T02:06:33;16.82;77.03
65876;HTU21D;52657;51.128;5.938;2022-10-15T02:09:24;16.82;77.01
65876;HTU21D;52657;51.128;5.938;2022-10-15T02:12:16;16.82;77.00
65876;HTU21D;52657;51.128;5.938;2022-10-15T02:23:14;16.80;77.15
65876;HTU21D;52657;51.128;5.938;2022-10-15T02:25:42;16.81;77.14
65876;HTU21D;52657;51.128;5.938;2022-10-15T02:28:10;16.80;77.28
65876;HTU21D;52657;51.128;5.938;2022-10-15T02:30:42;16.81;77.24
65876;HTU21D;52657;51.128;5.938;2022-10-15T02:33:12;16.80;77.27
65876;HTU21D;52657;51.128;5.938;2022-10-15T02:35:41;16.80;77.28
65876;HTU21D;52657;51.128;5.938;2022-10-15T02:38:12;16.81;77.24
65876;HTU21D;52657;51.128;5.938;2022-10-15T02:40:42;16.82;77.15
65876;HTU21D;52657;51.128;5.938;2022-10-15T02:43:12;16.82;77.08
65876;HTU21D;52657;51.128;5.938;2022-10-15T02:45:39;16.79;77.23
65876;HTU21D;52657;51.128;5.938;2022-10-15T02:48:05;16.79;77.30
65876;HTU21D;52657;51.128;5.938;2022-10-15T02:50:31;16.80;77.27
65876;HTU21D;52657;51.128;5.938;2022-10-15T02:52:57;16.81;77.26
65876;HTU21D;52657;51.128;5.938;2022-10-15T02:55:22;16.79;77.30
65876;HTU21D;52657;51.128;5.938;2022-10-15T02:57:48;16.79;77.25
65876;HTU21D;52657;51.128;5.938;2022-10-15T03:00:15;16.80;77.21
65876;HTU21D;52657;51.128;5.938;2022-10-15T03:02:44;16.80;77.21
65876;HTU21D;52657;51.128;5.938;2022-10-15T03:05:10;16.82;77.26
65876;HTU21D;52657;51.128;5.938;2022-10-15T03:07:36;16.82;77.24
65876;HTU21D;52657;51.128;5.938;2022-10-15T03:10:03;16.85;77.13
65876;HTU21D;52657;51.128;5.938;2022-10-15T03:12:30;16.85;77.09
65876;HTU21D;52657;51.128;5.938;2022-10-15T03:14:56;16.86;77.11
65876;HTU21D;52657;51.128;5.938;2022-10-15T03:17:23;16.84;77.12
65876;HTU21D;52657;51.128;5.938;2022-10-15T03:19:48;16.82;77.30
65876;HTU21D;52657;51.128;5.938;2022-10-15T03:22:14;16.79;77.46
65876;HTU21D;52657;51.128;5.938;2022-10-15T03:24:47;16.80;77.50
65876;HTU21D;52657;51.128;5.938;2022-10-15T03:27:17;16.80;77.56
65876;HTU21D;52657;51.128;5.938;2022-10-15T03:29:43;16.79;77.59
65876;HTU21D;52657;51.128;5.938;2022-10-15T03:32:10;16.79;77.61
65876;HTU21D;52657;51.128;5.938;2022-10-15T03:34:37;16.80;77.50
65876;HTU21D;52657;51.128;5.938;2022-10-15T03:37:03;16.85;77.36
65876;HTU21D;52657;51.128;5.938;2022-10-15T03:39:29;16.81;77.43
65876;HTU21D;52657;51.128;5.938;2022-10-15T03:41:59;16.79;77.42
65876;HTU21D;52657;51.128;5.938;2022-10-15T03:44:33;16.77;77.38
65876;HTU21D;52657;51.128;5.938;2022-10-15T03:47:13;16.72;77.34
65876;HTU21D;52657;51.128;5.938;2022-10-15T03:49:43;16.67;77.39
65876;HTU21D;52657;51.128;5.938;2022-10-15T03:52:09;16.64;77.34
65876;HTU21D;52657;51.128;5.938;2022-10-15T03:54:35;16.55;77.54
65876;HTU21D;52657;51.128;5.938;2022-10-15T03:57:01;16.50;77.90
65876;HTU21D;52657;51.128;5.938;2022-10-15T03:59:32;16.50;78.09
65876;HTU21D;52657;51.128;5.938;2022-10-15T04:02:01;16.48;78.37
65876;HTU21D;52657;51.128;5.938;2022-10-15T04:04:27;16.49;78.47
65876;HTU21D;52657;51.128;5.938;2022-10-15T04:06:53;16.51;78.57
65876;HTU21D;52657;51.128;5.938;2022-10-15T04:09:19;16.52;78.63
65876;HTU21D;52657;51.128;5.938;2022-10-15T04:11:45;16.56;78.66
65876;HTU21D;52657;51.128;5.938;2022-10-15T04:14:12;16.56;78.75
65876;HTU21D;52657;51.128;5.938;2022-10-15T04:16:38;16.58;78.66
65876;HTU21D;52657;51.128;5.938;2022-10-15T04:19:30;16.57;78.73
65876;HTU21D;52657;51.128;5.938;2022-10-15T04:22:01;16.60;78.59
65876;HTU21D;52657;51.128;5.938;2022-10-15T04:24:49;16.60;78.34
65876;HTU21D;52657;51.128;5.938;2022-10-15T04:27:24;16.58;78.22
65876;HTU21D;52657;51.128;5.938;2022-10-15T04:29:50;16.56;78.08
65876;HTU21D;52657;51.128;5.938;2022-10-15T04:32:16;16.54;78.00
65876;HTU21D;52657;51.128;5.938;2022-10-15T04:34:43;16.51;77.85
65876;HTU21D;52657;51.128;5.938;2022-10-15T04:37:12;16.49;77.66
65876;HTU21D;52657;51.128;5.938;2022-10-15T04:39:38;16.46;77.43
65876;HTU21D;52657;51.128;5.938;2022-10-15T04:42:03;16.42;77.35
65876;HTU21D;52657;51.128;5.938;2022-10-15T04:44:31;16.39;77.34
65876;HTU21D;52657;51.128;5.938;2022-10-15T04:46:58;16.35;77.17
65876;HTU21D;52657;51.128;5.938;2022-10-15T04:49:37;16.30;77.15
65876;HTU21D;52657;51.128;5.938;2022-10-15T04:52:11;16.27;77.18
65876;HTU21D;52657;51.128;5.938;2022-10-15T04:54:46;16.22;77.35
65876;HTU21D;52657;51.128;5.938;2022-10-15T04:57:12;16.21;77.49
65876;HTU21D;52657;51.128;5.938;2022-10-15T04:59:38;16.20;77.51
65876;HTU21D;52657;51.128;5.938;2022-10-15T05:02:26;16.21;77.51
65876;HTU21D;52657;51.128;5.938;2022-10-15T05:05:01;16.24;77.69
65876;HTU21D;52657;51.128;5.938;2022-10-15T05:07:27;16.24;77.84
65876;HTU21D;52657;51.128;5.938;2022-10-15T05:09:53;16.25;77.88
65876;HTU21D;52657;51.128;5.938;2022-10-15T05:12:19;16.26;78.09
65876;HTU21D;52657;51.128;5.938;2022-10-15T05:14:45;16.29;78.05
65876;HTU21D;52657;51.128;5.938;2022-10-15T05:17:20;16.30;78.24
65876;HTU21D;52657;51.128;5.938;2022-10-15T05:19:46;16.33;78.33
65876;HTU21D;52657;51.128;5.938;2022-10-15T05:22:16;16.33;78.46
65876;HTU21D;52657;51.128;5.938;2022-10-15T05:24:48;16.34;78.47
65876;HTU21D;52657;51.128;5.938;2022-10-15T05:27:31;16.37;78.43
65876;HTU21D;52657;51.128;5.938;2022-10-15T05:29:58;16.37;78.46
65876;HTU21D;52657;51.128;5.938;2022-10-15T05:32:32;16.39;78.47
65876;HTU21D;52657;51.128;5.938;2022-10-15T05:34:58;16.41;78.50
65876;HTU21D;52657;51.128;5.938;2022-10-15T05:37:33;16.46;78.34
65876;HTU21D;52657;51.128;5.938;2022-10-15T05:39:58;16.49;78.26
65876;HTU21D;52657;51.128;5.938;2022-10-15T05:42:24;16.54;78.13
65876;HTU21D;52657;51.128;5.938;2022-10-15T05:44:58;16.59;77.91
65876;HTU21D;52657;51.128;5.938;2022-10-15T05:47:24;16.60;77.83
65876;HTU21D;52657;51.128;5.938;2022-10-15T05:49:57;16.62;77.84
65876;HTU21D;52657;51.128;5.938;2022-10-15T05:52:28;16.63;77.76
65876;HTU21D;52657;51.128;5.938;2022-10-15T05:55:17;16.63;77.72
65876;HTU21D;52657;51.128;5.938;2022-10-15T05:57:42;16.65;77.69
65876;HTU21D;52657;51.128;5.938;2022-10-15T06:00:08;16.65;77.63
65876;HTU21D;52657;51.128;5.938;2022-10-15T06:02:37;16.67;77.51
65876;HTU21D;52657;51.128;5.938;2022-10-15T06:05:03;16.66;77.60
65876;HTU21D;52657;51.128;5.938;2022-10-15T06:07:30;16.66;77.58
65876;HTU21D;52657;51.128;5.938;2022-10-15T06:10:00;16.64;77.50
65876;HTU21D;52657;51.128;5.938;2022-10-15T06:12:27;16.65;77.51
65876;HTU21D;52657;51.128;5.938;2022-10-15T06:14:52;16.64;77.55
65876;HTU21D;52657;51.128;5.938;2022-10-15T06:17:18;16.63;77.60
65876;HTU21D;52657;51.128;5.938;2022-10-15T06:19:48;16.64;77.58
65876;HTU21D;52657;51.128;5.938;2022-10-15T06:22:14;16.65;77.60
65876;HTU21D;52657;51.128;5.938;2022-10-15T06:24:40;16.66;77.53
65876;HTU21D;52657;51.128;5.938;2022-10-15T06:27:06;16.65;77.50
65876;HTU21D;52657;51.128;5.938;2022-10-15T06:29:33;16.66;77.50
65876;HTU21D;52657;51.128;5.938;2022-10-15T06:32:00;16.66;77.49
65876;HTU21D;52657;51.128;5.938;2022-10-15T06:34:26;16.67;77.56
65876;HTU21D;52657;51.128;5.938;2022-10-15T06:36:52;16.66;77.66
65876;HTU21D;52657;51.128;5.938;2022-10-15T06:39:18;16.69;77.75
65876;HTU21D;52657;51.128;5.938;2022-10-15T06:41:43;16.72;77.75
65876;HTU21D;52657;51.128;5.938;2022-10-15T06:44:09;16.71;77.92
65876;HTU21D;52657;51.128;5.938;2022-10-15T06:46:35;16.73;77.93
65876;HTU21D;52657;51.128;5.938;2022-10-15T06:49:02;16.75;77.94
65876;HTU21D;52657;51.128;5.938;2022-10-15T06:51:27;16.77;77.83
65876;HTU21D;52657;51.128;5.938;2022-10-15T06:53:53;16.79;77.93
65876;HTU21D;52657;51.128;5.938;2022-10-15T06:56:19;16.82;77.89
65876;HTU21D;52657;51.128;5.938;2022-10-15T06:58:44;16.87;77.77
65876;HTU21D;52657;51.128;5.938;2022-10-15T07:01:11;16.92;77.71
65876;HTU21D;52657;51.128;5.938;2022-10-15T07:03:36;16.99;77.55
65876;HTU21D;52657;51.128;5.938;2022-10-15T07:06:07;17.03;77.32
65876;HTU21D;52657;51.128;5.938;2022-10-15T07:08:33;17.05;77.25
65876;HTU21D;52657;51.128;5.938;2022-10-15T07:11:07;17.05;77.14
65876;HTU21D;52657;51.128;5.938;2022-10-15T07:13:36;17.05;77.14
65876;HTU21D;52657;51.128;5.938;2022-10-15T07:16:07;17.04;77.09
65876;HTU21D;52657;51.128;5.938;2022-10-15T07:18:34;17.03;77.14
65876;HTU21D;52657;51.128;5.938;2022-10-15T07:21:03;17.06;77.14
65876;HTU21D;52657;51.128;5.938;2022-10-15T07:23:29;17.08;77.18
65876;HTU21D;52657;51.128;5.938;2022-10-15T07:25:59;17.16;77.05
65876;HTU21D;52657;51.128;5.938;2022-10-15T07:28:25;17.14;77.12
65876;HTU21D;52657;51.128;5.938;2022-10-15T07:30:52;17.16;77.05
65876;HTU21D;52657;51.128;5.938;2022-10-15T07:33:17;17.19;76.95
65876;HTU21D;52657;51.128;5.938;2022-10-15T07:35:52;17.24;76.94
65876;HTU21D;52657;51.128;5.938;2022-10-15T07:38:18;17.33;76.79
65876;HTU21D;52657;51.128;5.938;2022-10-15T07:40:44;17.48;76.75
65876;HTU21D;52657;51.128;5.938;2022-10-15T07:43:10;17.55;76.37
65876;HTU21D;52657;51.128;5.938;2022-10-15T07:45:36;17.64;75.84
65876;HTU21D;52657;51.128;5.938;2022-10-15T07:48:02;17.68;75.60
65876;HTU21D;52657;51.128;5.938;2022-10-15T07:50:27;17.83;75.47
65876;HTU21D;52657;51.128;5.938;2022-10-15T07:52:59;18.03;75.45
65876;HTU21D;52657;51.128;5.938;2022-10-15T07:55:24;18.11;74.39
65876;HTU21D;52657;51.128;5.938;2022-10-15T07:57:50;18.15;74.16
65876;HTU21D;52657;51.128;5.938;2022-10-15T08:00:16;18.14;73.99
65876;HTU21D;52657;51.128;5.938;2022-10-15T08:02:42;18.13;73.99
65876;HTU21D;52657;51.128;5.938;2022-10-15T08:05:07;18.13;74.02
65876;HTU21D;52657;51.128;5.938;2022-10-15T08:07:33;18.13;74.02
65876;HTU21D;52657;51.128;5.938;2022-10-15T08:10:00;18.18;73.88
65876;HTU21D;52657;51.128;5.938;2022-10-15T08:12:27;18.30;74.02
65876;HTU21D;52657;51.128;5.938;2022-10-15T08:14:53;18.38;73.83
65876;HTU21D;52657;51.128;5.938;2022-10-15T08:17:19;18.43;73.64
65876;HTU21D;52657;51.128;5.938;2022-10-15T08:19:46;18.61;73.63
65876;HTU21D;52657;51.128;5.938;2022-10-15T08:22:11;18.76;73.22
65876;HTU21D;52657;51.128;5.938;2022-10-15T08:24:37;18.92;72.66
65876;HTU21D;52657;51.128;5.938;2022-10-15T08:27:03;19.06;72.27
65876;HTU21D;52657;51.128;5.938;2022-10-15T08:29:29;19.12;71.67
65876;HTU21D;52657;51.128;5.938;2022-10-15T08:31:58;19.17;71.63
65876;HTU21D;52657;51.128;5.938;2022-10-15T08:34:25;19.20;71.42
65876;HTU21D;52657;51.128;5.938;2022-10-15T08:36:51;19.21;71.19
65876;HTU21D;52657;51.128;5.938;2022-10-15T08:39:17;19.21;71.27
65876;HTU21D;52657;51.128;5.938;2022-10-15T08:41:59;19.18;71.38
65876;HTU21D;52657;51.128;5.938;2022-10-15T08:44:43;19.12;71.24
65876;HTU21D;52657;51.128;5.938;2022-10-15T08:50:01;19.11;72.07
65876;HTU21D;52657;51.128;5.938;2022-10-15T08:52:41;19.11;71.93
65876;HTU21D;52657;51.128;5.938;2022-10-15T08:55:12;19.09;71.68
65876;HTU21D;52657;51.128;5.938;2022-10-15T09:00:34;19.08;72.08
65876;HTU21D;52657;51.128;5.938;2022-10-15T09:06:11;19.08;72.45
65876;HTU21D;52657;51.128;5.938;2022-10-15T09:14:06;19.09;71.67
65876;HTU21D;52657;51.128;5.938;2022-10-15T09:16:36;19.11;72.01
65876;HTU21D;52657;51.128;5.938;2022-10-15T09:19:15;19.17;72.02
65876;HTU21D;52657;51.128;5.938;2022-10-15T09:21:42;19.27;71.88
65876;HTU21D;52657;51.128;5.938;2022-10-15T09:24:11;19.32;71.44
65876;HTU21D;52657;51.128;5.938;2022-10-15T09:29:18;19.29;71.74
65876;HTU21D;52657;51.128;5.938;2022-10-15T09:34:40;19.28;72.60
65876;HTU21D;52657;51.128;5.938;2022-10-15T09:37:24;19.28;73.02
65876;HTU21D;52657;51.128;5.938;2022-10-15T09:40:14;19.27;73.30
65876;HTU21D;52657;51.128;5.938;2022-10-15T09:42:44;19.23;73.45
65876;HTU21D;52657;51.128;5.938;2022-10-15T09:45:14;19.24;73.70
65876;HTU21D;52657;51.128;5.938;2022-10-15T09:47:42;19.25;73.76
65876;HTU21D;52657;51.128;5.938;2022-10-15T09:50:11;19.26;73.87
65876;HTU21D;52657;51.128;5.938;2022-10-15T09:52:59;19.35;74.13
65876;HTU21D;52657;51.128;5.938;2022-10-15T09:55:51;19.40;74.12
65876;HTU21D;52657;51.128;5.938;2022-10-15T09:58:29;19.45;73.80
65876;HTU21D;52657;51.128;5.938;2022-10-15T10:01:17;19.43;73.75
65876;HTU21D;52657;51.128;5.938;2022-10-15T10:03:43;19.39;73.96
65876;HTU21D;52657;51.128;5.938;2022-10-15T10:06:13;19.40;74.18
65876;HTU21D;52657;51.128;5.938;2022-10-15T10:08:58;19.45;73.98
65876;HTU21D;52657;51.128;5.938;2022-10-15T10:11:26;19.51;74.06
65876;HTU21D;52657;51.128;5.938;2022-10-15T10:14:00;19.57;73.91
65876;HTU21D;52657;51.128;5.938;2022-10-15T10:16:26;19.62;73.84
65876;HTU21D;52657;51.128;5.938;2022-10-15T10:19:13;19.71;73.69
65876;HTU21D;52657;51.128;5.938;2022-10-15T10:21:41;19.76;73.66
65876;HTU21D;52657;51.128;5.938;2022-10-15T10:24:29;19.85;73.47
65876;HTU21D;52657;51.128;5.938;2022-10-15T10:26:59;19.86;73.38
65876;HTU21D;52657;51.128;5.938;2022-10-15T10:29:26;19.89;73.76
65876;HTU21D;52657;51.128;5.938;2022-10-15T10:31:53;19.94;73.52
65876;HTU21D;52657;51.128;5.938;2022-10-15T10:34:31;19.96;73.23
65876;HTU21D;52657;51.128;5.938;2022-10-15T10:37:02;20.01;73.22
65876;HTU21D;52657;51.128;5.938;2022-10-15T10:39:31;20.01;72.94
65876;HTU21D;52657;51.128;5.938;2022-10-15T10:41:59;20.03;73.26
65876;HTU21D;52657;51.128;5.938;2022-10-15T10:49:44;20.17;73.52
65876;HTU21D;52657;51.128;5.938;2022-10-15T10:55:16;20.17;73.55
65876;HTU21D;52657;51.128;5.938;2022-10-15T10:57:54;20.10;73.77
65876;HTU21D;52657;51.128;5.938;2022-10-15T11:00:29;20.09;74.18
65876;HTU21D;52657;51.128;5.938;2022-10-15T11:03:00;20.12;74.62
65876;HTU21D;52657;51.128;5.938;2022-10-15T11:05:30;20.19;74.63
65876;HTU21D;52657;51.128;5.938;2022-10-15T11:10:52;20.36;74.75
65876;HTU21D;52657;51.128;5.938;2022-10-15T11:16:26;20.57;74.37
65876;HTU21D;52657;51.128;5.938;2022-10-15T11:27:09;20.90;73.33
65876;HTU21D;52657;51.128;5.938;2022-10-15T11:29:55;20.96;72.86
65876;HTU21D;52657;51.128;5.938;2022-10-15T11:32:52;21.05;72.45
65876;HTU21D;52657;51.128;5.938;2022-10-15T11:38:27;21.10;71.62
65876;HTU21D;52657;51.128;5.938;2022-10-15T11:41:38;21.08;71.82
65876;HTU21D;52657;51.128;5.938;2022-10-15T11:50:23;21.20;71.73
65876;HTU21D;52657;51.128;5.938;2022-10-15T11:58:02;21.21;70.93
65876;HTU21D;52657;51.128;5.938;2022-10-15T12:03:21;21.18;71.03
65876;HTU21D;52657;51.128;5.938;2022-10-15T12:08:31;21.23;71.06
65876;HTU21D;52657;51.128;5.938;2022-10-15T12:11:18;21.35;71.15
65876;HTU21D;52657;51.128;5.938;2022-10-15T12:16:32;21.54;70.21
65876;HTU21D;52657;51.128;5.938;2022-10-15T12:19:19;21.62;70.05
65876;HTU21D;52657;51.128;5.938;2022-10-15T12:22:03;21.70;69.68
65876;HTU21D;52657;51.128;5.938;2022-10-15T12:27:28;21.91;69.59
65876;HTU21D;52657;51.128;5.938;2022-10-15T12:32:36;22.05;69.00
65876;HTU21D;52657;51.128;5.938;2022-10-15T12:35:28;22.12;68.42
65876;HTU21D;52657;51.128;5.938;2022-10-15T12:38:18;22.17;68.36
65876;HTU21D;52657;51.128;5.938;2022-10-15T12:40:45;22.18;67.94
65876;HTU21D;52657;51.128;5.938;2022-10-15T12:43:18;22.19;68.04
65876;HTU21D;52657;51.128;5.938;2022-10-15T12:45:58;22.24;67.71
65876;HTU21D;52657;51.128;5.938;2022-10-15T12:48:37;22.23;67.62
65876;HTU21D;52657;51.128;5.938;2022-10-15T12:53:52;22.21;67.68
65876;HTU21D;52657;51.128;5.938;2022-10-15T12:56:34;22.17;68.30
65876;HTU21D;52657;51.128;5.938;2022-10-15T12:59:01;22.04;68.85
65876;HTU21D;52657;51.128;5.938;2022-10-15T13:01:48;21.91;69.81
65876;HTU21D;52657;51.128;5.938;2022-10-15T13:04:16;21.84;70.57
65876;HTU21D;52657;51.128;5.938;2022-10-15T13:06:44;21.77;70.57
65876;HTU21D;52657;51.128;5.938;2022-10-15T13:11:46;21.47;71.55
65876;HTU21D;52657;51.128;5.938;2022-10-15T13:14:17;21.38;72.12
65876;HTU21D;52657;51.128;5.938;2022-10-15T13:16:46;21.31;72.79
65876;HTU21D;52657;51.128;5.938;2022-10-15T13:19:18;21.30;73.06
65876;HTU21D;52657;51.128;5.938;2022-10-15T13:21:53;21.30;73.31
65876;HTU21D;52657;51.128;5.938;2022-10-15T13:24:39;21.25;73.50
65876;HTU21D;52657;51.128;5.938;2022-10-15T13:27:34;21.22;73.48
65876;HTU21D;52657;51.128;5.938;2022-10-15T13:30:03;21.14;73.64
65876;HTU21D;52657;51.128;5.938;2022-10-15T13:32:44;21.05;74.01
65876;HTU21D;52657;51.128;5.938;2022-10-15T13:35:18;21.04;74.14
65876;HTU21D;52657;51.128;5.938;2022-10-15T13:37:48;20.99;74.19
65876;HTU21D;52657;51.128;5.938;2022-10-15T13:40:28;20.91;74.47
65876;HTU21D;52657;51.128;5.938;2022-10-15T13:43:12;20.87;75.28
65876;HTU21D;52657;51.128;5.938;2022-10-15T13:45:58;20.94;75.68
65876;HTU21D;52657;51.128;5.938;2022-10-15T13:48:30;20.95;75.78
65876;HTU21D;52657;51.128;5.938;2022-10-15T13:51:04;20.98;75.87
65876;HTU21D;52657;51.128;5.938;2022-10-15T13:53:36;21.00;75.78
65876;HTU21D;52657;51.128;5.938;2022-10-15T13:56:25;21.02;75.83
65876;HTU21D;52657;51.128;5.938;2022-10-15T13:58:52;21.01;75.62
65876;HTU21D;52657;51.128;5.938;2022-10-15T14:01:24;21.00;75.76
65876;HTU21D;52657;51.128;5.938;2022-10-15T14:03:58;21.04;75.65
65876;HTU21D;52657;51.128;5.938;2022-10-15T14:06:28;21.07;75.73
65876;HTU21D;52657;51.128;5.938;2022-10-15T14:09:12;21.13;75.44
65876;HTU21D;52657;51.128;5.938;2022-10-15T14:11:42;21.17;75.49
65876;HTU21D;52657;51.128;5.938;2022-10-15T14:14:29;21.17;75.34
65876;HTU21D;52657;51.128;5.938;2022-10-15T14:16:58;21.18;75.34
65876;HTU21D;52657;51.128;5.938;2022-10-15T14:19:27;21.23;75.43
65876;HTU21D;52657;51.128;5.938;2022-10-15T14:21:59;21.23;75.34
65876;HTU21D;52657;51.128;5.938;2022-10-15T14:24:36;21.23;75.20
65876;HTU21D;52657;51.128;5.938;2022-10-15T14:27:14;21.17;75.02
65876;HTU21D;52657;51.128;5.938;2022-10-15T14:29:46;21.05;74.86
65876;HTU21D;52657;51.128;5.938;2022-10-15T14:32:25;20.91;74.85
65876;HTU21D;52657;51.128;5.938;2022-10-15T14:34:57;20.80;75.27
65876;HTU21D;52657;51.128;5.938;2022-10-15T14:37:39;20.75;75.37
65876;HTU21D;52657;51.128;5.938;2022-10-15T14:45:29;20.71;75.28
65876;HTU21D;52657;51.128;5.938;2022-10-15T14:48:06;20.66;75.15
65876;HTU21D;52657;51.128;5.938;2022-10-15T14:50:35;20.64;75.18
65876;HTU21D;52657;51.128;5.938;2022-10-15T14:53:08;20.64;75.15
65876;HTU21D;52657;51.128;5.938;2022-10-15T14:55:41;20.69;75.24
65876;HTU21D;52657;51.128;5.938;2022-10-15T15:01:06;20.72;74.83
65876;HTU21D;52657;51.128;5.938;2022-10-15T15:03:49;20.71;74.83
65876;HTU21D;52657;51.128;5.938;2022-10-15T15:06:16;20.70;74.86
65876;HTU21D;52657;51.128;5.938;2022-10-15T15:08:41;20.74;74.84
65876;HTU21D;52657;51.128;5.938;2022-10-15T15:11:14;20.74;75.04
65876;HTU21D;52657;51.128;5.938;2022-10-15T15:13:43;20.80;74.92
65876;HTU21D;52657;51.128;5.938;2022-10-15T15:16:12;20.87;74.87
65876;HTU21D;52657;51.128;5.938;2022-10-15T15:18:38;20.95;74.58
65876;HTU21D;52657;51.128;5.938;2022-10-15T15:21:10;20.98;74.28
65876;HTU21D;52657;51.128;5.938;2022-10-15T15:23:36;20.95;73.89
65876;HTU21D;52657;51.128;5.938;2022-10-15T15:26:02;20.92;73.70
65876;HTU21D;52657;51.128;5.938;2022-10-15T15:28:34;20.84;74.24
65876;HTU21D;52657;51.128;5.938;2022-10-15T15:31:09;20.84;74.07
65876;HTU21D;52657;51.128;5.938;2022-10-15T15:33:38;20.80;74.13
65876;HTU21D;52657;51.128;5.938;2022-10-15T15:36:12;20.87;73.46
65876;HTU21D;52657;51.128;5.938;2022-10-15T15:38:38;20.77;73.52
65876;HTU21D;52657;51.128;5.938;2022-10-15T15:41:21;20.72;73.46
65876;HTU21D;52657;51.128;5.938;2022-10-15T15:43:48;20.70;73.70
65876;HTU21D;52657;51.128;5.938;2022-10-15T15:46:14;20.71;73.41
65876;HTU21D;52657;51.128;5.938;2022-10-15T15:48:41;20.69;73.22
65876;HTU21D;52657;51.128;5.938;2022-10-15T15:51:27;20.69;72.32
65876;HTU21D;52657;51.128;5.938;2022-10-15T15:53:54;20.63;70.84
65876;HTU21D;52657;51.128;5.938;2022-10-15T15:56:21;20.59;70.22
65876;HTU21D;52657;51.128;5.938;2022-10-15T15:58:48;20.59;69.89
65876;HTU21D;52657;51.128;5.938;2022-10-15T16:01:20;20.59;68.97
65876;HTU21D;52657;51.128;5.938;2022-10-15T16:03:46;20.55;68.33
65876;HTU21D;52657;51.128;5.938;2022-10-15T16:06:12;20.55;68.26
65876;HTU21D;52657;51.128;5.938;2022-10-15T16:08:38;20.55;68.28
65876;HTU21D;52657;51.128;5.938;2022-10-15T16:11:05;20.50;68.52
65876;HTU21D;52657;51.128;5.938;2022-10-15T16:13:31;20.47;67.94
65876;HTU21D;52657;51.128;5.938;2022-10-15T16:15:57;20.43;67.68
65876;HTU21D;52657;51.128;5.938;2022-10-15T16:18:26;20.39;68.14
65876;HTU21D;52657;51.128;5.938;2022-10-15T16:20:52;20.37;68.48
65876;HTU21D;52657;51.128;5.938;2022-10-15T16:23:18;20.35;68.67
65876;HTU21D;52657;51.128;5.938;2022-10-15T16:25:44;20.33;68.82
65876;HTU21D;52657;51.128;5.938;2022-10-15T16:28:12;20.30;69.45
65876;HTU21D;52657;51.128;5.938;2022-10-15T16:30:37;20.28;69.94
65876;HTU21D;52657;51.128;5.938;2022-10-15T16:33:03;20.24;70.19
65876;HTU21D;52657;51.128;5.938;2022-10-15T16:35:31;20.22;70.47
65876;HTU21D;52657;51.128;5.938;2022-10-15T16:37:57;20.20;70.66
65876;HTU21D;52657;51.128;5.938;2022-10-15T16:40:22;20.15;70.88
65876;HTU21D;52657;51.128;5.938;2022-10-15T16:42:48;20.11;71.04
65876;HTU21D;52657;51.128;5.938;2022-10-15T16:45:14;20.07;70.89
65876;HTU21D;52657;51.128;5.938;2022-10-15T16:47:40;20.04;70.89
65876;HTU21D;52657;51.128;5.938;2022-10-15T16:50:07;20.02;71.34
65876;HTU21D;52657;51.128;5.938;2022-10-15T16:52:34;20.00;71.45
65876;HTU21D;52657;51.128;5.938;2022-10-15T16:54:59;19.98;71.55
65876;HTU21D;52657;51.128;5.938;2022-10-15T16:57:25;19.95;71.43
65876;HTU21D;52657;51.128;5.938;2022-10-15T16:59:58;19.91;71.63
65876;HTU21D;52657;51.128;5.938;2022-10-15T17:02:27;19.86;71.60
65876;HTU21D;52657;51.128;5.938;2022-10-15T17:04:56;19.83;71.74
65876;HTU21D;52657;51.128;5.938;2022-10-15T17:07:22;19.76;71.51
65876;HTU21D;52657;51.128;5.938;2022-10-15T17:09:48;19.69;71.65
65876;HTU21D;52657;51.128;5.938;2022-10-15T17:12:14;19.63;71.81
65876;HTU21D;52657;51.128;5.938;2022-10-15T17:14:40;19.56;71.94
65876;HTU21D;52657;51.128;5.938;2022-10-15T17:17:06;19.52;72.06
65876;HTU21D;52657;51.128;5.938;2022-10-15T17:19:32;19.47;72.11
65876;HTU21D;52657;51.128;5.938;2022-10-15T17:21:59;19.43;72.21